createdAt,value
2019-04-16T00:01:35.109Z,102390.86
2019-04-16T00:04:08.566Z,102375.81
2019-04-16T00:06:47.222Z,102381.12
2019-04-16T00:09:33.291Z,102372.95
2019-04-16T00:12:19.619Z,102376.23
2019-04-16T00:14:55.430Z,102380.02
2019-04-16T00:17:23.943Z,102370.67
2019-04-16T00:19:52.159Z,102369.81
2019-04-16T00:22:34.260Z,102358.89
2019-04-16T00:25:02.782Z,102357.05
2019-04-16T00:27:31.018Z,102358.61
2019-04-16T00:30:04.131Z,102355.87
2019-04-16T00:32:29.690Z,102355.52
2019-04-16T00:34:57.896Z,102354.16
2019-04-16T00:37:26.128Z,102344.42
2019-04-16T00:39:56.207Z,102353.17
2019-04-16T00:42:24.614Z,102347.86
2019-04-16T00:44:52.829Z,102348.41
2019-04-16T00:47:21.113Z,102344.14
2019-04-16T00:49:49.357Z,102346.20
2019-04-16T00:52:17.555Z,102346.05
2019-04-16T00:54:45.813Z,102350.50
2019-04-16T00:57:17.800Z,102344.17
2019-04-16T00:59:44.232Z,102346.55
2019-04-16T01:02:12.428Z,102353.94
2019-04-16T01:04:40.635Z,102341.95
2019-04-16T01:07:09.457Z,102345.22
2019-04-16T01:09:37.708Z,102348.66
2019-04-16T01:12:05.946Z,102347.12
2019-04-16T01:14:34.149Z,102350.23
2019-04-16T01:17:05.065Z,102350.23
2019-04-16T01:19:32.376Z,102346.48
2019-04-16T01:22:00.947Z,102351.13
2019-04-16T01:24:29.146Z,102349.91
2019-04-16T01:26:58.281Z,102348.04
2019-04-16T01:29:27.737Z,102348.06
2019-04-16T01:31:57.922Z,102349.78
2019-04-16T01:34:47.036Z,102341.92
2019-04-16T01:37:16.023Z,102340.91
2019-04-16T01:39:47.622Z,102338.72
2019-04-16T01:42:15.837Z,102343.48
2019-04-16T01:44:44.064Z,102345.55
2019-04-16T01:47:12.270Z,102348.13
2019-04-16T01:49:42.165Z,102339.92
2019-04-16T01:52:11.402Z,102336.52
2019-04-16T01:54:39.950Z,102339.56
2019-04-16T01:57:08.489Z,102338.39
2019-04-16T01:59:36.724Z,102338.89
2019-04-16T02:02:05.035Z,102340.28
2019-04-16T02:04:33.200Z,102333.64
2019-04-16T02:07:01.407Z,102331.09
2019-04-16T02:09:34.129Z,102332.62
2019-04-16T02:11:59.745Z,102336.05
2019-04-16T02:14:28.217Z,102330.42
2019-04-16T02:16:56.730Z,102335.06
2019-04-16T02:19:25.883Z,102333.34
2019-04-16T02:21:54.094Z,102332.86
2019-04-16T02:24:22.285Z,102336.12
2019-04-16T02:26:54.582Z,102335.80
2019-04-16T02:29:20.543Z,102333.59
2019-04-16T02:31:51.802Z,102329.17
2019-04-16T02:34:19.299Z,102330.06
2019-04-16T02:36:47.933Z,102324.98
2019-04-16T02:39:16.138Z,102326.68
2019-04-16T02:41:44.529Z,102331.80
2019-04-16T02:44:15.970Z,102328.06
2019-04-16T02:46:42.677Z,102329.75
2019-04-16T02:49:10.899Z,102328.06
2019-04-16T02:51:43.258Z,102335.92
2019-04-16T02:54:19.183Z,102328.96
2019-04-16T02:57:05.817Z,102325.69
2019-04-16T02:59:38.118Z,102331.69
2019-04-16T03:02:07.973Z,102335.27
2019-04-16T03:04:40.687Z,102329.13
2019-04-16T03:07:09.730Z,102326.41
2019-04-16T03:09:40.262Z,102316.86
2019-04-16T03:12:07.894Z,102318.41
2019-04-16T03:14:36.124Z,102318.59
2019-04-16T03:17:22.128Z,102312.78
2019-04-16T03:19:52.132Z,102319.79
2019-04-16T03:22:20.471Z,102311.09
2019-04-16T03:24:48.699Z,102309.38
2019-04-16T03:27:21.842Z,102318.61
2019-04-16T03:29:46.998Z,102301.01
2019-04-16T03:32:15.767Z,102302.23
2019-04-16T03:34:44.357Z,102303.08
2019-04-16T03:37:12.567Z,102302.07
2019-04-16T03:39:43.628Z,102306.67
2019-04-16T03:42:10.830Z,102294.22
2019-04-16T03:44:40.045Z,102196.16
2019-04-16T03:47:08.487Z,102289.64
2019-04-16T03:49:37.079Z,102289.97
2019-04-16T03:52:08.821Z,102289.97
2019-04-16T03:54:35.323Z,102288.78
2019-04-16T03:57:03.550Z,102291.19
2019-04-16T03:59:31.833Z,102296.48
2019-04-16T04:02:00.376Z,102295.30
2019-04-16T04:04:29.904Z,102290.34
2019-04-16T04:06:59.097Z,102288.62
2019-04-16T04:09:27.735Z,102284.70
2019-04-16T04:11:56.000Z,102281.80
2019-04-16T04:14:24.195Z,102275.84
2019-04-16T04:16:52.409Z,102277.37
2019-04-16T04:19:21.112Z,102276.88
2019-04-16T04:21:50.671Z,102271.55
2019-04-16T04:24:19.574Z,102278.91
2019-04-16T04:26:47.800Z,102274.28
2019-04-16T04:29:16.004Z,102275.32
2019-04-16T04:31:47.876Z,102276.33
2019-04-16T04:34:17.426Z,102265.58
2019-04-16T04:36:46.283Z,102277.34
2019-04-16T04:39:15.712Z,102271.88
2019-04-16T04:41:44.098Z,102266.58
2019-04-16T04:44:12.399Z,102267.92
2019-04-16T04:46:43.255Z,102267.72
2019-04-16T04:49:10.640Z,102273.16
2019-04-16T04:51:42.680Z,102274.19
2019-04-16T04:54:09.389Z,102262.22
2019-04-16T04:56:37.720Z,102269.50
2019-04-16T04:59:06.288Z,102258.59
2019-04-16T05:01:34.467Z,102268.08
2019-04-16T05:04:21.039Z,102259.84
2019-04-16T05:06:51.112Z,102249.58
2019-04-16T05:09:19.318Z,102255.47
2019-04-16T05:11:49.443Z,102166.18
2019-04-16T05:14:17.505Z,102264.52
2019-04-16T05:16:45.720Z,102267.36
2019-04-16T05:19:15.500Z,102261.72
2019-04-16T05:21:44.005Z,102263.33
2019-04-16T05:24:12.204Z,102265.23
2019-04-16T05:26:40.576Z,102274.81
2019-04-16T05:29:16.321Z,102251.63
2019-04-16T05:31:42.334Z,102263.46
2019-04-16T05:34:10.651Z,102261.46
2019-04-16T05:36:40.254Z,102270.03
2019-04-16T05:39:09.093Z,102262.50
2019-04-16T05:41:37.886Z,102260.19
2019-04-16T05:44:06.089Z,102260.55
2019-04-16T05:46:34.289Z,102271.43
2019-04-16T05:49:02.516Z,102261.76
2019-04-16T05:51:31.452Z,102262.19
2019-04-16T05:54:18.100Z,102263.75
2019-04-16T05:56:47.933Z,102256.31
2019-04-16T05:59:16.555Z,102262.66
2019-04-16T06:01:46.431Z,102258.69
2019-04-16T06:04:14.948Z,102254.99
2019-04-16T06:06:43.416Z,102256.60
2019-04-16T06:09:12.954Z,102259.17
2019-04-16T06:11:41.915Z,102246.60
2019-04-16T06:14:16.762Z,102262.20
2019-04-16T06:16:46.597Z,102264.09
2019-04-16T06:19:32.619Z,102260.73
2019-04-16T06:22:02.770Z,102256.40
2019-04-16T06:24:36.138Z,102252.55
2019-04-16T06:27:06.036Z,102246.45
2019-04-16T06:29:47.475Z,102238.94
2019-04-16T06:32:35.368Z,102256.27
2019-04-16T06:35:21.403Z,102247.46
2019-04-16T06:38:09.477Z,102246.96
2019-04-16T06:40:39.316Z,102248.43
2019-04-16T06:43:14.781Z,102252.94
2019-04-16T06:45:44.627Z,102237.44
2019-04-16T06:48:14.557Z,102254.14
2019-04-16T06:50:50.106Z,102248.98
2019-04-16T06:53:23.798Z,102247.52
2019-04-16T06:55:53.997Z,102244.95
2019-04-16T06:58:27.226Z,102244.34
2019-04-16T07:01:05.850Z,102247.26
2019-04-16T07:03:35.989Z,102244.30
2019-04-16T07:06:23.860Z,102243.01
2019-04-16T07:08:53.748Z,102243.05
2019-04-16T07:11:26.522Z,102232.17
2019-04-16T07:13:55.038Z,102240.47
2019-04-16T07:16:28.139Z,102233.31
2019-04-16T07:18:53.453Z,102229.13
2019-04-16T07:21:21.665Z,102227.78
2019-04-16T07:23:49.932Z,102221.23
2019-04-16T07:26:18.165Z,102220.69
2019-04-16T07:28:48.015Z,102225.98
2019-04-16T07:34:05.728Z,102226.01
2019-04-16T07:34:34.791Z,102216.03
2019-04-16T07:36:51.861Z,102213.17
2019-04-16T07:39:29.685Z,102211.80
2019-04-16T07:42:08.464Z,102224.83
2019-04-16T07:44:43.475Z,102209.23
2019-04-16T07:47:22.152Z,102219.80
2019-04-16T07:50:07.583Z,102213.75
2019-04-16T07:52:42.053Z,102215.85
2019-04-16T07:55:17.624Z,102217.00
2019-04-16T07:57:46.263Z,102212.34
2019-04-16T08:00:15.140Z,102223.55
2019-04-16T08:02:43.396Z,102218.27
2019-04-16T08:05:11.987Z,102220.91
2019-04-16T08:07:40.189Z,102218.04
2019-04-16T08:10:08.403Z,102221.97
2019-04-16T08:12:38.253Z,102218.66
2019-04-16T08:15:14.493Z,102225.84
2019-04-16T08:17:37.000Z,102222.02
2019-04-16T08:20:05.209Z,102222.08
2019-04-16T08:22:33.509Z,102224.71
2019-04-16T08:25:04.114Z,102224.41
2019-04-16T08:27:32.817Z,102221.92
2019-04-16T08:30:03.479Z,102216.02
2019-04-16T08:32:31.058Z,102215.53
2019-04-16T08:34:59.593Z,102219.27
2019-04-16T08:37:27.812Z,102215.78
2019-04-16T08:39:56.017Z,102215.21
2019-04-16T08:42:26.521Z,102212.36
2019-04-16T08:44:54.188Z,102220.61
2019-04-16T08:47:22.714Z,102210.51
2019-04-16T08:49:54.142Z,102207.25
2019-04-16T08:52:20.859Z,102221.25
2019-04-16T08:54:50.280Z,102208.57
2019-04-16T08:57:18.999Z,102213.95
2019-04-16T08:59:47.210Z,102214.48
2019-04-16T09:02:15.450Z,102207.89
2019-04-16T09:04:44.030Z,102213.17
2019-04-16T09:07:19.633Z,102203.56
2019-04-16T09:09:57.129Z,102207.04
2019-04-16T09:12:23.432Z,102208.48
2019-04-16T09:14:55.992Z,102208.56
2019-04-16T09:17:23.499Z,102199.73
2019-04-16T09:19:53.353Z,102200.50
2019-04-16T09:22:21.558Z,102213.94
2019-04-16T09:24:57.092Z,102204.05
2019-04-16T09:27:33.851Z,102191.54
2019-04-16T09:30:01.487Z,102197.05
2019-04-16T09:32:37.424Z,102204.13
2019-04-16T09:35:17.858Z,102192.88
2019-04-16T09:37:42.064Z,102207.45
2019-04-16T09:40:17.743Z,102203.96
2019-04-16T09:42:44.359Z,102192.71
2019-04-16T09:45:14.229Z,102199.97
2019-04-16T09:47:42.797Z,102196.19
2019-04-16T09:50:11.554Z,102194.86
2019-04-16T09:52:39.923Z,102200.36
2019-04-16T09:55:08.139Z,102195.61
2019-04-16T09:57:36.371Z,102194.94
2019-04-16T10:00:08.565Z,102191.45
2019-04-16T10:02:36.940Z,102185.81
2019-04-16T10:05:07.613Z,102182.37
2019-04-16T10:07:39.825Z,102185.00
2019-04-16T10:10:07.015Z,102179.87
2019-04-16T10:12:35.208Z,102185.33
2019-04-16T10:15:04.096Z,102172.86
2019-04-16T10:17:32.315Z,102167.69
2019-04-16T10:20:00.540Z,102177.40
2019-04-16T10:22:29.124Z,102161.00
2019-04-16T10:24:59.150Z,102165.76
2019-04-16T10:27:32.252Z,102147.74
2019-04-16T10:29:59.455Z,102154.94
2019-04-16T10:32:29.478Z,102141.37
2019-04-16T10:34:57.722Z,102137.59
2019-04-16T10:37:25.921Z,102141.00
2019-04-16T10:39:58.510Z,102134.37
2019-04-16T10:42:31.121Z,102128.34
2019-04-16T10:45:06.827Z,102132.84
2019-04-16T10:47:36.662Z,102126.27
2019-04-16T10:50:07.102Z,102120.59
2019-04-16T10:52:43.292Z,102111.30
2019-04-16T10:55:18.888Z,102113.13
2019-04-16T10:57:49.107Z,102115.47
2019-04-16T11:00:25.866Z,102120.05
2019-04-16T11:02:55.815Z,102107.97
2019-04-16T11:05:41.064Z,102108.12
2019-04-16T11:08:10.177Z,102097.41
2019-04-16T11:10:38.655Z,102098.11
2019-04-16T11:13:08.514Z,102110.22
2019-04-16T11:15:37.618Z,102101.84
2019-04-16T11:18:06.506Z,102090.35
2019-04-16T11:20:35.036Z,102094.80
2019-04-16T11:23:06.747Z,102091.25
2019-04-16T11:25:33.198Z,102092.02
2019-04-16T11:28:01.404Z,102091.07
2019-04-16T11:30:31.635Z,102079.05
2019-04-16T11:33:00.042Z,102079.55
2019-04-16T11:35:28.251Z,102074.65
2019-04-16T11:37:56.966Z,102076.84
2019-04-16T11:40:25.159Z,102078.55
2019-04-16T11:42:53.495Z,102075.09
2019-04-16T11:45:21.736Z,102069.97
2019-04-16T11:47:49.938Z,102071.16
2019-04-16T11:50:18.204Z,102081.36
2019-04-16T11:52:46.815Z,102053.73
2019-04-16T11:55:15.104Z,102072.08
2019-04-16T11:57:44.080Z,102069.53
2019-04-16T12:00:14.082Z,102066.21
2019-04-16T12:02:52.817Z,102071.31
2019-04-16T12:05:31.676Z,102058.69
2019-04-16T12:08:01.586Z,102066.38
2019-04-16T12:10:47.559Z,102068.84
2019-04-16T12:13:17.495Z,102065.41
2019-04-16T12:15:53.498Z,102064.02
2019-04-16T12:18:31.918Z,102057.37
2019-04-16T12:21:00.744Z,102058.33
2019-04-16T12:23:36.820Z,102056.19
2019-04-16T12:26:23.162Z,102063.26
2019-04-16T12:29:05.098Z,102056.87
2019-04-16T12:31:37.372Z,102050.22
2019-04-16T12:34:07.304Z,102027.64
2019-04-16T12:36:52.208Z,102040.36
2019-04-16T12:39:36.053Z,102049.05
2019-04-16T12:42:05.628Z,102051.80
2019-04-16T12:44:50.553Z,102040.88
2019-04-16T12:47:25.947Z,102048.14
2019-04-16T12:50:08.065Z,102045.30
2019-04-16T12:52:47.195Z,102039.96
2019-04-16T12:55:25.698Z,102042.23
2019-04-16T12:57:58.779Z,102031.61
2019-04-16T13:00:31.693Z,102041.35
2019-04-16T13:03:01.664Z,102038.33
2019-04-16T13:05:37.517Z,102031.09
2019-04-16T13:08:19.026Z,102030.86
2019-04-16T13:11:08.064Z,102041.27
2019-04-16T13:13:39.467Z,102034.30
2019-04-16T13:16:09.707Z,102016.74
2019-04-16T13:18:42.958Z,102029.61
2019-04-16T13:21:13.113Z,102020.13
2019-04-16T13:23:42.979Z,102016.75
2019-04-16T13:26:27.530Z,102011.39
2019-04-16T13:28:56.778Z,102019.71
2019-04-16T13:31:27.950Z,102019.41
2019-04-16T13:33:56.175Z,102016.63
2019-04-16T13:36:27.225Z,101998.25
2019-04-16T13:38:55.997Z,101996.61
2019-04-16T13:41:26.977Z,102006.42
2019-04-16T13:44:07.962Z,102003.39
2019-04-16T13:46:34.946Z,102000.33
2019-04-16T13:49:05.144Z,101990.61
2019-04-16T13:51:35.280Z,101987.57
2019-04-16T13:54:27.995Z,101990.70
2019-04-16T13:57:02.810Z,101998.56
2019-04-16T13:59:32.671Z,101992.47
2019-04-16T14:02:04.977Z,101999.44
2019-04-16T14:04:36.755Z,102000.29
2019-04-16T14:07:03.135Z,101991.59
2019-04-16T14:09:31.681Z,101998.52
2019-04-16T14:11:59.909Z,101992.59
2019-04-16T14:14:28.215Z,101994.53
2019-04-16T14:16:56.420Z,101891.28
2019-04-16T14:19:24.648Z,101983.69
2019-04-16T14:21:53.116Z,101988.72
2019-04-16T14:24:21.395Z,101980.39
2019-04-16T14:26:49.705Z,101982.65
2019-04-16T14:29:17.914Z,101982.40
2019-04-16T14:31:48.849Z,101991.84
2019-04-16T14:34:34.501Z,101989.34
2019-04-16T14:37:02.879Z,101988.20
2019-04-16T14:39:32.727Z,101980.94
2019-04-16T14:42:00.994Z,101980.06
2019-04-16T14:44:31.592Z,101987.59
2019-04-16T14:47:01.962Z,101980.38
2019-04-16T14:49:30.373Z,101981.52
2019-04-16T14:52:02.135Z,101990.78
2019-04-16T14:54:36.151Z,101982.97
2019-04-16T14:57:11.001Z,101993.52
2019-04-16T14:59:49.751Z,101985.14
2019-04-16T15:02:29.699Z,101987.34
2019-04-16T15:05:03.565Z,101980.14
2019-04-16T15:07:33.483Z,101997.67
2019-04-16T15:10:05.801Z,101997.38
2019-04-16T15:12:50.945Z,101993.72
2019-04-16T15:15:26.535Z,101983.66
2019-04-16T15:18:02.440Z,101987.00
2019-04-16T15:20:36.143Z,101990.09
2019-04-16T15:23:14.088Z,101986.73
2019-04-16T15:26:02.771Z,101980.28
2019-04-16T15:28:48.897Z,101986.70
2019-04-16T15:31:18.761Z,101978.34
2019-04-16T15:33:54.136Z,101983.89
2019-04-16T15:36:24.025Z,101981.63
2019-04-16T15:39:04.043Z,101986.34
2019-04-16T15:41:49.612Z,101984.66
2019-04-16T15:44:22.465Z,101975.42
2019-04-16T15:46:51.056Z,101981.56
2019-04-16T15:49:24.196Z,101981.56
2019-04-16T15:51:54.093Z,101980.99
2019-04-16T15:54:23.968Z,101991.02
2019-04-16T15:56:53.828Z,101989.34
2019-04-16T15:59:40.425Z,101988.20
2019-04-16T16:02:26.361Z,101986.81
2019-04-16T16:04:56.261Z,101994.02
2019-04-16T16:07:25.215Z,101984.27
2019-04-16T16:10:03.912Z,102002.91
2019-04-16T16:12:32.143Z,101993.44
2019-04-16T16:15:00.428Z,101989.26
2019-04-16T16:17:28.661Z,101987.30
2019-04-16T16:19:56.909Z,101981.72
2019-04-16T16:22:25.429Z,101984.52
2019-04-16T16:24:53.634Z,101984.75
2019-04-16T16:27:21.848Z,101995.31
2019-04-16T16:29:50.091Z,102000.61
2019-04-16T16:32:19.213Z,102000.30
2019-04-16T16:34:47.438Z,101994.47
2019-04-16T16:37:15.697Z,101998.61
2019-04-16T16:39:44.004Z,101991.92
2019-04-16T16:42:12.227Z,102000.52
2019-04-16T16:44:40.826Z,101993.25
2019-04-16T16:47:10.693Z,101997.39
2019-04-16T16:49:39.317Z,102006.86
2019-04-16T16:52:12.626Z,102001.84
2019-04-16T16:54:42.928Z,102009.34
2019-04-16T16:57:15.255Z,102004.86
2019-04-16T16:59:45.440Z,102014.80
2019-04-16T17:02:18.520Z,102006.69
2019-04-16T17:04:48.426Z,102014.73
2019-04-16T17:07:17.803Z,102015.20
2019-04-16T17:09:46.326Z,102015.75
2019-04-16T17:12:14.529Z,102011.84
2019-04-16T17:14:42.742Z,102017.37
2019-04-16T17:17:14.685Z,102014.51
2019-04-16T17:19:41.194Z,102023.09
2019-04-16T17:22:09.435Z,102022.23
2019-04-16T17:24:37.642Z,102016.91
2019-04-16T17:27:06.400Z,102022.16
2019-04-16T17:29:34.607Z,102019.02
2019-04-16T17:32:03.190Z,102019.79
2019-04-16T17:34:31.386Z,102033.37
2019-04-16T17:36:59.893Z,102033.87
2019-04-16T17:39:42.320Z,102025.77
2019-04-16T17:42:10.799Z,102026.30
2019-04-16T17:44:57.095Z,102030.47
2019-04-16T17:47:32.257Z,102029.27
2019-04-16T17:50:02.481Z,102035.00
2019-04-16T17:52:42.414Z,102034.63
2019-04-16T17:55:18.274Z,102047.58
2019-04-16T17:57:48.387Z,102041.67
2019-04-16T18:00:34.605Z,102054.39
2019-04-16T18:03:05.264Z,102052.09
2019-04-16T18:05:41.316Z,102060.37
2019-04-16T18:08:11.191Z,102059.16
2019-04-16T18:10:43.732Z,102062.09
2019-04-16T18:13:22.129Z,102062.48
2019-04-16T18:15:51.999Z,102064.30
2019-04-16T18:18:25.109Z,102071.23
2019-04-16T18:20:58.553Z,102071.13
2019-04-16T18:23:29.394Z,102072.98
2019-04-16T18:26:02.307Z,102077.89
2019-04-16T18:28:32.143Z,102083.91
2019-04-16T18:31:11.155Z,102084.13
2019-04-16T18:33:43.841Z,102088.25
2019-04-16T18:36:23.302Z,102091.81
2019-04-16T18:39:09.550Z,102093.19
2019-04-16T18:41:42.088Z,102101.20
2019-04-16T18:44:22.054Z,102101.06
2019-04-16T18:47:10.655Z,102101.55
2019-04-16T18:49:39.123Z,102106.44
2019-04-16T18:52:07.390Z,102109.14
2019-04-16T18:54:35.888Z,102106.02
2019-04-16T18:57:04.116Z,102111.77
2019-04-16T18:59:32.315Z,102118.33
2019-04-16T19:02:02.179Z,102121.90
2019-04-16T19:04:30.713Z,102123.82
2019-04-16T19:06:58.966Z,102124.59
2019-04-16T19:09:27.462Z,102131.41
2019-04-16T19:11:55.709Z,102134.97
2019-04-16T19:14:23.904Z,102130.73
2019-04-16T19:16:52.407Z,102139.00
2019-04-16T19:19:22.347Z,102138.13
2019-04-16T19:21:52.246Z,102139.38
2019-04-16T19:24:20.996Z,102144.05
2019-04-16T19:26:49.187Z,102150.00
2019-04-16T19:29:17.411Z,102148.77
2019-04-16T19:31:45.693Z,102154.50
2019-04-16T19:34:14.226Z,102151.59
2019-04-16T19:36:42.723Z,102153.45
2019-04-16T19:39:15.087Z,102161.48
2019-04-16T19:41:41.536Z,102166.11
2019-04-16T19:44:09.777Z,102162.20
2019-04-16T19:46:37.977Z,102162.60
2019-04-16T19:49:06.571Z,102172.77
2019-04-16T19:51:37.881Z,102169.64
2019-04-16T19:54:04.805Z,102168.44
2019-04-16T19:56:33.708Z,102179.63
2019-04-16T19:59:02.547Z,102179.02
2019-04-16T20:01:30.783Z,102184.20
2019-04-16T20:03:59.015Z,102184.92
2019-04-16T20:06:27.223Z,102179.84
2019-04-16T20:08:55.465Z,102192.27
2019-04-16T20:11:23.666Z,102184.73
2019-04-16T20:13:51.920Z,102192.66
2019-04-16T20:16:20.165Z,102185.91
2019-04-16T20:18:51.313Z,102190.48
2019-04-16T20:21:19.520Z,102192.32
2019-04-16T20:23:47.701Z,102199.98
2019-04-16T20:26:15.961Z,102195.06
2019-04-16T20:28:45.345Z,102202.94
2019-04-16T20:31:14.127Z,102197.85
2019-04-16T20:33:42.443Z,102194.02
2019-04-16T20:36:10.627Z,102205.70
2019-04-16T20:38:38.907Z,102206.16
2019-04-16T20:41:07.434Z,102212.47
2019-04-16T20:43:35.914Z,102209.05
2019-04-16T20:46:04.496Z,102209.95
2019-04-16T20:48:32.959Z,102211.13
2019-04-16T20:51:02.155Z,102212.07
2019-04-16T20:53:30.670Z,102215.45
2019-04-16T20:55:59.921Z,102217.63
2019-04-16T20:58:31.481Z,102209.86
2019-04-16T21:01:00.444Z,102204.34
2019-04-16T21:03:31.033Z,102212.19
2019-04-16T21:05:59.820Z,102210.10
2019-04-16T21:08:28.659Z,102211.67
2019-04-16T21:10:59.801Z,102215.97
2019-04-16T21:13:30.185Z,102222.71
2019-04-16T21:16:01.765Z,102221.19
2019-04-16T21:18:28.307Z,102226.63
2019-04-16T21:20:56.833Z,102221.25
2019-04-16T21:23:25.112Z,102227.16
2019-04-16T21:25:53.606Z,102233.03
2019-04-16T21:28:32.401Z,102238.09
2019-04-16T21:31:02.251Z,102232.17
2019-04-16T21:33:49.260Z,102238.66
2019-04-16T21:36:37.928Z,102238.66
2019-04-16T21:39:09.059Z,102234.89
2019-04-16T21:41:37.273Z,102239.17
2019-04-16T21:44:05.474Z,102244.60
2019-04-16T21:46:33.691Z,102242.27
2019-04-16T21:49:02.053Z,102247.31
2019-04-16T21:51:30.290Z,102251.36
2019-04-16T21:53:58.842Z,102256.59
2019-04-16T21:56:27.065Z,102251.73
2019-04-16T21:58:55.439Z,102251.01
2019-04-16T22:01:32.744Z,102252.52
2019-04-16T22:04:13.532Z,102253.37
2019-04-16T22:06:39.450Z,102252.30
2019-04-16T22:09:07.698Z,102251.38
2019-04-16T22:11:36.036Z,102252.13
2019-04-16T22:14:04.517Z,102250.89
2019-04-16T22:16:32.723Z,102251.55
2019-04-16T22:19:01.240Z,102253.78
2019-04-16T22:21:29.450Z,102256.97
2019-04-16T22:23:57.856Z,102251.05
2019-04-16T22:26:26.105Z,102260.09
2019-04-16T22:28:54.302Z,102258.08
2019-04-16T22:31:23.945Z,102257.55
2019-04-16T22:33:52.456Z,102259.13
2019-04-16T22:36:20.655Z,102265.21
2019-04-16T22:38:50.548Z,102260.22
2019-04-16T22:41:23.584Z,102258.84
2019-04-16T22:44:01.285Z,102263.41
2019-04-16T22:46:31.123Z,102255.68
2019-04-16T22:49:00.830Z,102267.48
2019-04-16T22:51:29.020Z,102267.67
2019-04-16T22:53:58.403Z,102263.98
2019-04-16T22:56:29.130Z,102268.25
2019-04-16T22:58:57.337Z,102265.06
2019-04-16T23:01:27.185Z,102266.27
2019-04-16T23:03:55.407Z,102269.68
2019-04-16T23:06:23.664Z,102275.32
2019-04-16T23:08:51.867Z,102277.05
2019-04-16T23:11:23.349Z,102281.61
2019-04-16T23:13:50.338Z,102279.30
2019-04-16T23:16:18.643Z,102278.67
2019-04-16T23:18:49.376Z,102282.14
2019-04-16T23:21:16.841Z,102282.08
2019-04-16T23:23:47.631Z,102279.51
2019-04-16T23:26:15.004Z,102283.24
2019-04-16T23:28:43.688Z,102287.90
2019-04-16T23:31:12.000Z,102291.96
2019-04-16T23:33:40.594Z,102295.77
2019-04-16T23:36:08.769Z,102295.99
2019-04-16T23:38:37.341Z,102286.56
2019-04-16T23:41:05.558Z,102291.98
2019-04-16T23:43:53.495Z,102286.98
2019-04-16T23:46:23.961Z,102293.02
2019-04-16T23:49:02.652Z,102292.91
2019-04-16T23:51:38.218Z,102296.61
2019-04-16T23:54:16.866Z,102292.80
2019-04-16T23:56:49.779Z,102291.62
2019-04-16T23:59:18.441Z,102289.30
